Time;durP1;ratioP1;P1;durP2;ratioP2;P2;SDS_P1;SDS_P2;PMS_P1;PMS_P2;Temp;Humidity;BMP_temperature;BMP_pressure;BME280_temperature;BME280_humidity;BME280_pressure;Samples;Min_cycle;Max_cycle;Signal;HPM_P1;HPM_P2
2022/06/17 00:01:51;;;;;;;0.10;0.10;;;14.10;99.90;;;;;;5038725;28;20029;-67
2022/06/17 00:04:16;;;;;;;1.20;0.70;;;14.10;99.90;;;;;;5023534;28;20046;-67
2022/06/17 00:07:04;;;;;;;0.68;0.35;;;14.20;99.90;;;;;;5041953;28;21326;-68
2022/06/17 00:09:33;;;;;;;0.85;0.30;;;14.20;99.90;;;;;;5041212;28;20072;-69
2022/06/17 00:11:59;;;;;;;0.63;0.20;;;14.20;99.90;;;;;;5040979;28;20381;-67
2022/06/17 00:14:31;;;;;;;1.48;0.88;;;14.20;99.90;;;;;;5043393;28;20025;-67
2022/06/17 00:16:57;;;;;;;0.75;0.22;;;14.20;99.90;;;;;;5040850;28;20029;-68
2022/06/17 00:19:23;;;;;;;0.82;0.30;;;14.10;99.90;;;;;;5045814;28;20118;-69
2022/06/17 00:21:52;;;;;;;0.35;0.17;;;14.10;99.90;;;;;;5042978;28;20473;-68
2022/06/17 00:24:23;;;;;;;1.33;0.30;;;14.10;99.90;;;;;;5046714;28;20040;-68
2022/06/17 00:26:49;;;;;;;;;;;14.10;99.90;;;;;;5038865;28;20032;-68
2022/06/17 00:29:18;;;;;;;0.75;0.38;;;14.00;99.90;;;;;;5043707;28;20356;-68
2022/06/17 00:31:44;;;;;;;2.03;0.45;;;14.00;99.90;;;;;;5045779;28;20074;-68
2022/06/17 00:34:10;;;;;;;0.40;0.30;;;14.00;99.90;;;;;;5043813;28;20025;-69
2022/06/17 00:36:36;;;;;;;0.47;0.20;;;14.00;99.90;;;;;;5044827;28;20030;-68
2022/06/17 00:39:09;;;;;;;0.75;0.28;;;14.00;99.90;;;;;;5038516;28;20040;-67
2022/06/17 00:41:38;;;;;;;0.80;0.35;;;13.90;99.90;;;;;;5040222;28;20575;-67
2022/06/17 00:44:18;;;;;;;0.50;0.20;;;13.90;99.90;;;;;;5039844;28;20067;-68
2022/06/17 00:46:50;;;;;;;0.60;0.40;;;13.90;99.90;;;;;;5044953;28;20064;-68
2022/06/17 00:49:50;;;;;;;0.30;0.20;;;13.80;99.90;;;;;;5038149;28;20044;-68
2022/06/17 00:52:23;;;;;;;0.10;0.10;;;13.90;99.90;;;;;;5038664;28;20038;-70
2022/06/17 00:55:04;;;;;;;0.45;0.20;;;13.90;99.90;;;;;;5036122;28;20072;-68
2022/06/17 00:57:40;;;;;;;1.00;0.40;;;13.90;99.90;;;;;;5042346;28;20119;-68
2022/06/17 01:00:17;;;;;;;0.28;0.13;;;13.90;99.90;;;;;;5035618;28;20120;-68
2022/06/17 01:02:54;;;;;;;0.55;0.20;;;13.90;99.90;;;;;;5043417;28;20064;-68
2022/06/17 01:05:25;;;;;;;0.30;0.20;;;13.90;99.90;;;;;;5044918;28;20025;-68
2022/06/17 01:07:59;;;;;;;0.57;0.20;;;13.90;99.90;;;;;;5038932;28;20033;-68
2022/06/17 01:10:25;;;;;;;0.28;0.15;;;13.90;99.90;;;;;;5036277;28;20288;-70
2022/06/17 01:13:05;;;;;;;0.47;0.20;;;13.90;99.90;;;;;;5040715;28;20029;-69
2022/06/17 01:15:33;;;;;;;0.45;0.20;;;13.80;99.90;;;;;;5053091;28;20034;-68
2022/06/17 01:18:00;;;;;;;0.50;0.30;;;13.80;99.90;;;;;;5044570;28;20025;-68
2022/06/17 01:20:27;;;;;;;0.40;0.20;;;13.80;99.90;;;;;;5041957;28;20080;-69
2022/06/17 01:22:57;;;;;;;0.40;0.20;;;13.80;99.90;;;;;;5056668;28;20044;-68
2022/06/17 01:25:22;;;;;;;0.80;0.30;;;13.80;99.90;;;;;;5044706;28;20075;-67
2022/06/17 01:27:51;;;;;;;0.32;0.20;;;13.80;99.90;;;;;;5042671;28;20389;-67
2022/06/17 01:30:21;;;;;;;1.35;0.70;;;13.70;99.90;;;;;;5047606;28;20046;-68
2022/06/17 01:32:55;;;;;;;0.50;0.20;;;13.70;99.90;;;;;;5040458;28;20165;-68
2022/06/17 01:35:24;;;;;;;0.43;0.30;;;13.80;99.90;;;;;;5047239;28;20155;-68
2022/06/17 01:37:50;;;;;;;0.43;0.20;;;13.70;99.90;;;;;;5044458;28;20029;-68
2022/06/17 01:40:18;;;;;;;0.65;0.20;;;13.70;99.90;;;;;;5027534;28;20185;-67
2022/06/17 01:42:44;;;;;;;0.17;0.13;;;13.70;99.90;;;;;;5035359;28;20068;-67
2022/06/17 01:45:11;;;;;;;0.50;0.22;;;13.70;99.90;;;;;;5045757;28;20029;-67
2022/06/17 01:47:40;;;;;;;0.73;0.35;;;13.70;99.90;;;;;;5040636;28;20032;-68
2022/06/17 01:50:11;;;;;;;0.40;0.20;;;13.70;99.90;;;;;;5048185;28;20022;-68
2022/06/17 01:52:59;;;;;;;0.38;0.20;;;13.70;99.90;;;;;;5037696;28;20013;-68
2022/06/17 01:55:50;;;;;;;0.88;0.40;;;13.70;99.90;;;;;;5042032;28;20041;-68
2022/06/17 01:58:34;;;;;;;0.28;0.20;;;13.70;99.90;;;;;;5045440;28;20071;-67
2022/06/17 02:01:01;;;;;;;0.52;0.20;;;13.70;99.90;;;;;;5043660;28;20089;-68
2022/06/17 02:03:32;;;;;;;0.38;0.22;;;13.70;99.90;;;;;;5041791;28;20029;-69
2022/06/17 02:06:07;;;;;;;1.10;0.30;;;13.70;99.90;;;;;;5046369;28;20020;-68
2022/06/17 02:08:34;;;;;;;0.75;0.30;;;13.60;99.90;;;;;;5044327;28;20089;-68
2022/06/17 02:11:03;;;;;;;0.75;0.30;;;13.60;99.90;;;;;;5050472;28;20071;-68
2022/06/17 02:13:31;;;;;;;0.20;0.15;;;13.60;99.90;;;;;;5041220;28;20401;-67
2022/06/17 02:16:02;;;;;;;0.63;0.20;;;13.50;99.90;;;;;;5048511;28;20033;-67
2022/06/17 02:18:28;;;;;;;0.93;0.30;;;13.50;99.90;;;;;;5034810;28;20036;-67
2022/06/17 02:20:56;;;;;;;0.88;0.30;;;13.40;99.90;;;;;;5047350;28;20083;-68
2022/06/17 02:23:24;;;;;;;0.68;0.25;;;13.40;99.90;;;;;;5045751;28;20074;-68
2022/06/17 02:25:52;;;;;;;0.70;0.30;;;13.40;99.90;;;;;;5046117;28;20089;-69
2022/06/17 02:28:19;;;;;;;0.47;0.20;;;13.30;99.90;;;;;;5049355;28;20032;-69
2022/06/17 02:30:48;;;;;;;1.33;0.70;;;13.30;99.90;;;;;;5041373;28;20047;-68
2022/06/17 02:33:15;;;;;;;0.52;0.20;;;13.30;99.90;;;;;;5044714;28;20068;-68
2022/06/17 02:36:04;;;;;;;0.40;0.40;;;13.30;99.90;;;;;;5044703;28;20033;-69
2022/06/17 02:38:33;;;;;;;0.28;0.20;;;13.30;99.90;;;;;;5044428;28;20025;-68
2022/06/17 02:41:06;;;;;;;0.30;0.20;;;13.30;99.90;;;;;;5045335;28;20033;-68
2022/06/17 02:43:38;;;;;;;0.10;0.10;;;13.20;99.90;;;;;;5036814;28;20045;-68
2022/06/17 02:46:25;;;;;;;0.60;0.20;;;13.20;99.90;;;;;;5040678;28;20486;-74
2022/06/17 02:49:06;;;;;;;0.60;0.25;;;13.10;99.90;;;;;;5043800;28;20510;-75
2022/06/17 02:51:39;;;;;;;0.10;0.10;;;13.10;99.90;;;;;;5044007;28;20030;-75
2022/06/17 02:54:06;;;;;;;0.95;0.40;;;13.10;99.90;;;;;;5040100;28;20109;-74
2022/06/17 02:56:35;;;;;;;0.65;0.30;;;13.10;99.90;;;;;;5047065;28;20224;-74
2022/06/17 02:59:21;;;;;;;0.28;0.20;;;13.10;99.90;;;;;;5049887;28;20096;-75
2022/06/17 03:01:49;;;;;;;0.45;0.20;;;13.10;99.90;;;;;;5039580;28;20683;-74
2022/06/17 03:04:19;;;;;;;0.20;0.20;;;13.10;99.90;;;;;;5040081;28;20130;-75
2022/06/17 03:06:49;;;;;;;0.32;0.30;;;13.10;99.90;;;;;;5039083;28;20021;-74
2022/06/17 03:09:25;;;;;;;0.57;0.28;;;13.10;99.90;;;;;;5039192;28;20466;-74
2022/06/17 03:12:13;;;;;;;0.38;0.20;;;13.20;99.90;;;;;;5038506;28;20041;-75
2022/06/17 03:14:46;;;;;;;0.35;0.20;;;13.20;99.90;;;;;;5036948;28;20457;-74
2022/06/17 03:17:15;;;;;;;0.90;0.30;;;13.30;99.90;;;;;;5036715;28;20041;-76
2022/06/17 03:19:41;;;;;;;0.65;0.52;;;13.30;99.90;;;;;;5041028;28;20034;-75
2022/06/17 03:22:10;;;;;;;0.35;0.25;;;13.40;99.90;;;;;;5048263;28;20025;-75
2022/06/17 03:25:03;;;;;;;0.60;0.30;;;13.40;99.90;;;;;;5053079;28;20041;-75
2022/06/17 03:27:46;;;;;;;0.40;0.20;;;13.50;99.90;;;;;;5043039;28;20107;-75
2022/06/17 03:30:18;;;;;;;0.55;0.20;;;13.60;99.90;;;;;;5045682;28;20036;-74
2022/06/17 03:32:48;;;;;;;1.08;0.50;;;13.60;99.90;;;;;;5045338;28;20057;-75
2022/06/17 03:35:21;;;;;;;0.38;0.20;;;13.70;99.90;;;;;;5036651;28;20025;-74
2022/06/17 03:38:06;;;;;;;0.50;0.20;;;13.70;99.90;;;;;;5037246;28;20070;-74
2022/06/17 03:40:39;;;;;;;0.52;0.20;;;13.70;99.90;;;;;;5037794;28;20029;-74
2022/06/17 03:43:10;;;;;;;0.38;0.20;;;13.80;99.90;;;;;;5052582;28;20048;-74
2022/06/17 03:45:46;;;;;;;0.52;0.25;;;13.80;99.90;;;;;;5052252;28;20092;-74
2022/06/17 03:49:03;;;;;;;0.50;0.20;;;13.90;99.90;;;;;;5038589;28;20072;-74
2022/06/17 03:51:29;;;;;;;0.38;0.20;;;14.00;99.90;;;;;;5031111;28;20047;-73
2022/06/17 03:53:55;;;;;;;0.35;0.20;;;14.00;99.90;;;;;;5047171;28;20029;-74
2022/06/17 03:56:31;;;;;;;0.20;0.20;;;14.10;99.90;;;;;;5045342;28;20029;-74
2022/06/17 03:59:02;;;;;;;0.57;0.28;;;14.20;99.90;;;;;;5043988;28;20036;-74
2022/06/17 04:01:38;;;;;;;0.98;0.43;;;14.30;99.90;;;;;;5049791;28;20025;-73
2022/06/17 04:04:12;;;;;;;0.30;0.20;;;14.40;99.90;;;;;;5044823;28;20072;-74
2022/06/17 04:06:41;;;;;;;0.17;0.17;;;14.40;99.90;;;;;;5044990;28;20021;-73
2022/06/17 04:09:21;;;;;;;0.47;0.22;;;14.50;99.90;;;;;;5039419;28;20041;-74
2022/06/17 04:11:51;;;;;;;0.45;0.20;;;14.70;99.90;;;;;;5037976;28;20027;-74
2022/06/17 04:14:24;;;;;;;0.80;0.30;;;14.80;99.90;;;;;;5041655;28;20488;-74
2022/06/17 04:17:14;;;;;;;0.40;0.20;;;15.00;99.90;;;;;;5039699;28;20289;-74
2022/06/17 04:19:42;;;;;;;1.08;0.40;;;15.20;99.90;;;;;;5037323;28;20029;-73
2022/06/17 04:22:19;;;;;;;0.45;0.20;;;15.30;99.90;;;;;;5042564;28;20028;-74
2022/06/17 04:24:54;;;;;;;0.30;0.20;;;15.50;99.90;;;;;;5045786;28;20040;-74
2022/06/17 04:27:20;;;;;;;1.08;0.63;;;15.50;99.90;;;;;;5035434;28;20093;-73
2022/06/17 04:29:51;;;;;;;0.32;0.17;;;15.60;99.90;;;;;;5046007;28;20041;-74
2022/06/17 04:32:24;;;;;;;0.47;0.30;;;15.70;99.90;;;;;;5046440;28;20055;-73
2022/06/17 04:34:50;;;;;;;0.52;0.20;;;15.70;99.90;;;;;;5040008;28;20045;-73
2022/06/17 04:37:20;;;;;;;0.47;0.20;;;15.80;99.90;;;;;;5039368;28;20126;-73
2022/06/17 04:39:53;;;;;;;1.10;0.40;;;15.80;99.90;;;;;;5039551;28;20106;-73
2022/06/17 04:42:41;;;;;;;1.05;0.30;;;15.90;99.90;;;;;;5051445;28;20111;-73
2022/06/17 04:45:18;;;;;;;1.13;0.47;;;16.00;99.90;;;;;;5039063;28;20159;-73
2022/06/17 04:47:43;;;;;;;0.35;0.20;;;16.20;99.90;;;;;;5040549;28;20056;-73
2022/06/17 04:50:13;;;;;;;0.77;0.28;;;16.20;99.90;;;;;;5052549;28;20107;-73
2022/06/17 04:52:42;;;;;;;0.70;0.20;;;16.30;99.90;;;;;;5048341;28;20033;-74
2022/06/17 04:55:41;;;;;;;0.45;0.20;;;16.40;99.90;;;;;;5047800;28;20029;-73
2022/06/17 04:58:13;;;;;;;0.70;0.20;;;16.50;99.90;;;;;;5038731;28;20064;-74
2022/06/17 05:00:44;;;;;;;0.30;0.20;;;16.50;99.90;;;;;;5043568;28;20660;-75
2022/06/17 05:03:10;;;;;;;0.63;0.35;;;16.50;99.90;;;;;;5046573;28;20041;-73
2022/06/17 05:05:39;;;;;;;0.47;0.25;;;16.50;99.90;;;;;;5043116;28;20036;-73
2022/06/17 05:08:11;;;;;;;0.35;0.15;;;16.50;99.90;;;;;;5050322;28;20032;-74
2022/06/17 05:10:41;;;;;;;0.28;0.17;;;16.60;99.90;;;;;;5043728;28;20036;-73
2022/06/17 05:13:14;;;;;;;1.30;0.47;;;16.60;99.90;;;;;;5039730;28;21035;-74
2022/06/17 05:15:40;;;;;;;0.57;0.20;;;16.60;99.90;;;;;;5044364;28;20406;-73
2022/06/17 05:18:05;;;;;;;0.57;0.30;;;16.70;99.90;;;;;;5039922;28;20041;-74
2022/06/17 05:20:31;;;;;;;0.57;0.25;;;16.60;99.90;;;;;;5049519;28;20486;-73
2022/06/17 05:23:06;;;;;;;0.57;0.20;;;16.70;99.90;;;;;;5040449;28;20110;-73
2022/06/17 05:25:38;;;;;;;0.30;0.10;;;16.70;99.90;;;;;;5053826;28;20021;-74
2022/06/17 05:28:07;;;;;;;0.47;0.20;;;16.70;99.90;;;;;;5050463;28;20025;-73
2022/06/17 05:30:39;;;;;;;0.15;0.10;;;16.70;99.90;;;;;;5048279;28;20030;-73
2022/06/17 05:33:06;;;;;;;0.30;0.20;;;16.80;99.90;;;;;;5026570;28;20049;-73
2022/06/17 05:35:31;;;;;;;0.50;0.25;;;16.90;99.90;;;;;;5053406;28;20120;-74
2022/06/17 05:37:58;;;;;;;0.20;0.10;;;16.90;99.90;;;;;;5043489;28;20029;-73
2022/06/17 05:40:26;;;;;;;1.42;0.45;;;17.00;99.90;;;;;;5060084;28;20033;-72
2022/06/17 05:42:52;;;;;;;0.28;0.10;;;17.10;99.90;;;;;;5043632;28;20236;-72
2022/06/17 05:45:21;;;;;;;0.82;0.40;;;17.20;99.90;;;;;;5043212;28;20053;-71
2022/06/17 05:47:46;;;;;;;0.65;0.20;;;17.20;99.90;;;;;;5042879;28;20088;-73
2022/06/17 05:50:13;;;;;;;0.63;0.28;;;17.40;99.90;;;;;;5052913;28;20036;-72
2022/06/17 05:53:01;;;;;;;0.20;0.10;;;17.40;99.90;;;;;;5050286;28;20389;-73
2022/06/17 05:55:28;;;;;;;0.32;0.10;;;17.50;99.90;;;;;;5049984;28;20033;-72
2022/06/17 05:57:54;;;;;;;0.10;0.10;;;17.50;99.90;;;;;;5048223;28;20037;-73
2022/06/17 06:00:22;;;;;;;0.88;0.47;;;17.60;99.90;;;;;;5052281;28;20089;-72
2022/06/17 06:02:47;;;;;;;0.80;0.30;;;17.70;99.90;;;;;;5044972;28;20041;-73
2022/06/17 06:05:17;;;;;;;1.45;0.73;;;17.80;99.90;;;;;;5042051;28;20064;-72
2022/06/17 06:07:43;;;;;;;0.25;0.20;;;17.90;99.90;;;;;;5048464;28;20521;-72
2022/06/17 06:10:10;;;;;;;0.75;0.47;;;18.00;99.90;;;;;;5041832;28;20033;-66
2022/06/17 06:12:54;;;;;;;0.35;0.15;;;18.20;99.90;;;;;;5046074;28;20494;-67
2022/06/17 06:15:36;;;;;;;0.52;0.25;;;18.30;99.90;;;;;;5046397;28;20036;-72
2022/06/17 06:18:03;;;;;;;0.10;0.10;;;18.30;99.90;;;;;;5038615;28;20033;-72
2022/06/17 06:20:28;;;;;;;0.43;0.20;;;18.30;99.90;;;;;;5017218;28;20029;-73
2022/06/17 06:22:54;;;;;;;0.30;0.20;;;18.30;99.90;;;;;;5036877;28;20059;-71
2022/06/17 06:25:21;;;;;;;1.42;0.50;;;18.40;99.90;;;;;;5018467;28;20068;-72
2022/06/17 06:27:47;;;;;;;0.77;0.20;;;18.40;99.90;;;;;;5039345;28;20017;-72
2022/06/17 06:30:21;;;;;;;1.55;0.80;;;18.40;99.90;;;;;;5037332;28;20103;-74
2022/06/17 06:32:52;;;;;;;0.47;0.10;;;18.40;99.90;;;;;;5045373;28;20087;-74
2022/06/17 06:35:19;;;;;;;0.68;0.30;;;18.50;99.90;;;;;;5036176;28;20093;-74
2022/06/17 06:37:45;;;;;;;0.10;0.10;;;18.60;99.90;;;;;;5033730;28;20040;-73
2022/06/17 06:40:11;;;;;;;0.65;0.20;;;18.70;99.90;;;;;;5046628;28;20377;-73
2022/06/17 06:42:37;;;;;;;1.08;0.43;;;18.80;99.90;;;;;;5041342;28;20041;-73
2022/06/17 06:45:04;;;;;;;0.50;0.25;;;19.00;99.90;;;;;;5026547;28;20041;-74
2022/06/17 06:47:30;;;;;;;1.42;0.73;;;19.30;99.90;;;;;;5027252;28;20341;-72
2022/06/17 06:49:56;;;;;;;0.52;0.20;;;19.40;99.90;;;;;;5016451;28;20489;-73
2022/06/17 06:52:24;;;;;;;0.52;0.20;;;19.60;99.90;;;;;;5005668;28;20535;-73
2022/06/17 06:54:52;;;;;;;0.40;0.10;;;19.90;99.90;;;;;;5026533;28;20112;-75
2022/06/17 06:57:19;;;;;;;0.70;0.45;;;20.10;99.90;;;;;;5037441;28;20125;-74
2022/06/17 06:59:45;;;;;;;1.20;0.40;;;20.40;99.90;;;;;;5037918;28;20029;-75
2022/06/17 07:02:10;;;;;;;0.63;0.30;;;20.60;99.90;;;;;;5021789;28;20033;-74
2022/06/17 07:04:36;;;;;;;0.38;0.20;;;20.80;99.90;;;;;;5019534;28;20406;-74
2022/06/17 07:07:02;;;;;;;0.77;0.20;;;20.90;99.90;;;;;;5035435;28;20041;-74
2022/06/17 07:09:27;;;;;;;0.75;0.30;;;21.10;99.90;;;;;;5039071;28;20021;-74
2022/06/17 07:11:53;;;;;;;1.45;0.73;;;21.20;99.90;;;;;;5038198;28;20493;-74
2022/06/17 07:14:19;;;;;;;0.20;0.10;;;21.30;99.90;;;;;;5037740;28;20492;-75
2022/06/17 07:16:44;;;;;;;1.00;0.52;;;21.20;99.90;;;;;;5034751;28;20096;-75
2022/06/17 07:19:19;;;;;;;0.10;0.10;;;21.20;99.90;;;;;;5037017;28;20026;-74
2022/06/17 07:21:45;;;;;;;0.75;0.30;;;21.50;99.90;;;;;;5037123;28;20026;-76
2022/06/17 07:24:11;;;;;;;1.15;0.43;;;21.60;99.90;;;;;;5021592;28;20044;-74
2022/06/17 07:26:37;;;;;;;0.28;0.10;;;21.60;99.90;;;;;;5037801;28;20025;-75
2022/06/17 07:29:02;;;;;;;1.15;0.55;;;21.60;99.90;;;;;;5021223;28;20040;-73
2022/06/17 07:31:28;;;;;;;0.43;0.22;;;21.70;99.90;;;;;;5020872;28;20036;-74
2022/06/17 07:33:56;;;;;;;2.25;0.50;;;21.90;99.90;;;;;;5021182;28;20095;-75
2022/06/17 07:41:57;;;;;;;0.10;0.10;;;22.50;99.90;;;;;;5039790;28;20041;-74
2022/06/17 07:44:22;;;;;;;1.30;0.38;;;22.90;99.90;;;;;;5040869;28;20041;-71
2022/06/17 07:46:48;;;;;;;0.20;0.13;;;23.30;95.50;;;;;;5040922;28;20021;-71
2022/06/17 07:49:14;;;;;;;0.32;0.20;;;24.00;98.60;;;;;;5016974;28;20096;-72
2022/06/17 07:51:40;;;;;;;0.93;0.50;;;24.10;92.70;;;;;;5036438;28;20029;-71
2022/06/17 07:54:05;;;;;;;0.55;0.38;;;24.60;97.90;;;;;;5025502;28;20067;-72
2022/06/17 07:56:31;;;;;;;1.15;0.25;;;24.20;91.50;;;;;;5035629;28;20057;-73
2022/06/17 07:58:58;;;;;;;0.25;0.13;;;24.40;97.50;;;;;;5016503;28;20036;-73
2022/06/17 08:01:24;;;;;;;1.15;0.55;;;24.60;97.20;;;;;;5040718;28;20040;-72
2022/06/17 08:03:49;;;;;;;0.52;0.35;;;24.60;91.00;;;;;;5051403;28;20037;-72
2022/06/17 08:06:16;;;;;;;0.20;0.13;;;24.30;91.10;;;;;;5009143;28;20036;-72
2022/06/17 08:08:43;;;;;;;0.38;0.10;;;24.20;90.50;;;;;;5036471;28;20026;-72
2022/06/17 08:11:10;;;;;;;0.60;0.40;;;24.20;80.70;;;;;;5032829;28;20038;-72
2022/06/17 08:13:37;;;;;;;0.32;0.20;;;24.30;81.70;;;;;;5035777;28;20040;-72
2022/06/17 08:16:07;;;;;;;0.30;0.10;;;24.50;85.40;;;;;;5049673;28;20022;-71
2022/06/17 08:18:34;;;;;;;0.55;0.20;;;24.70;79.80;;;;;;5038551;28;20029;-71
2022/06/17 08:20:59;;;;;;;0.47;0.15;;;24.40;70.30;;;;;;5037015;28;20029;-71
2022/06/17 08:23:26;;;;;;;0.10;0.10;;;24.40;74.10;;;;;;5028016;28;20071;-71
2022/06/17 08:25:52;;;;;;;0.10;0.10;;;24.40;82.30;;;;;;5051022;28;20022;-73
2022/06/17 08:28:18;;;;;;;0.38;0.10;;;24.50;94.90;;;;;;5044187;28;20029;-73
2022/06/17 08:30:48;;;;;;;0.08;0.08;;;24.40;76.10;;;;;;5038421;28;20092;-74
2022/06/17 08:33:15;;;;;;;1.02;0.65;;;24.60;80.20;;;;;;5044982;28;20068;-72
2022/06/17 08:35:45;;;;;;;0.82;0.40;;;24.50;73.00;;;;;;5018749;28;20029;-72
2022/06/17 08:38:20;;;;;;;0.93;0.43;;;24.40;71.50;;;;;;5042861;28;20085;-71
2022/06/17 08:41:00;;;;;;;0.32;0.20;;;24.60;77.40;;;;;;5047057;28;20089;-71
2022/06/17 08:43:29;;;;;;;0.30;0.10;;;24.70;82.90;;;;;;5051418;28;20036;-72
2022/06/17 08:46:16;;;;;;;0.17;0.10;;;24.80;71.20;;;;;;5051193;28;20083;-74
2022/06/17 08:48:47;;;;;;;0.22;0.13;;;24.90;71.90;;;;;;5043229;28;20040;-73
2022/06/17 08:51:50;;;;;;;0.17;0.10;;;24.70;70.20;;;;;;5043981;28;22145;-72
2022/06/17 08:54:47;;;;;;;0.20;0.20;;;25.10;74.80;;;;;;5044898;28;20017;-74
2022/06/17 08:57:17;;;;;;;0.10;0.10;;;25.00;71.70;;;;;;5046304;28;20068;-74
2022/06/17 09:00:03;;;;;;;0.23;0.20;;;25.10;73.60;;;;;;5046775;28;20014;-74
2022/06/17 09:02:53;;;;;;;0.93;0.73;;;24.90;69.20;;;;;;5048987;28;20776;-73
2022/06/17 09:05:35;;;;;;;0.20;0.10;;;24.80;75.50;;;;;;5044425;28;20473;-74
2022/06/17 09:08:42;;;;;;;0.65;0.30;;;24.60;72.50;;;;;;5042653;28;20123;-75
2022/06/17 09:11:33;;;;;;;0.00;0.00;;;24.50;69.80;;;;;;5016647;28;20025;-74
2022/06/17 09:14:13;;;;;;;1.55;0.32;;;24.70;72.10;;;;;;5010965;28;20534;-74
2022/06/17 09:16:51;;;;;;;0.32;0.28;;;24.50;67.90;;;;;;5039043;28;20044;-75
2022/06/17 09:19:25;;;;;;;0.43;0.32;;;24.80;69.10;;;;;;5049856;28;20040;-75
2022/06/17 09:21:54;;;;;;;0.20;0.15;;;25.00;70.60;;;;;;5045176;28;20088;-75
2022/06/17 09:24:30;;;;;;;0.17;0.10;;;25.00;67.70;;;;;;5042821;28;20136;-75
2022/06/17 09:27:08;;;;;;;0.10;0.10;;;24.80;66.70;;;;;;5029762;28;20140;-75
2022/06/17 09:29:56;;;;;;;0.20;0.10;;;25.40;70.10;;;;;;5036872;28;20594;-75
2022/06/17 09:32:37;;;;;;;0.00;0.00;;;25.70;67.60;;;;;;5046221;28;20052;-70
2022/06/17 09:35:10;;;;;;;0.10;0.03;;;25.70;63.40;;;;;;5044654;28;20013;-69
2022/06/17 09:37:59;;;;;;;0.10;0.10;;;25.60;62.20;;;;;;5046945;28;20100;-69
2022/06/17 09:41:06;;;;;;;0.00;0.00;;;25.90;62.60;;;;;;5045143;28;20025;-70
2022/06/17 09:43:39;;;;;;;0.38;0.30;;;25.90;62.40;;;;;;5038733;28;20076;-69
2022/06/17 09:46:23;;;;;;;0.10;0.10;;;26.10;61.10;;;;;;5045959;28;20450;-69
2022/06/17 09:49:00;;;;;;;0.10;0.10;;;26.30;60.60;;;;;;5046814;28;20098;-68
2022/06/17 09:51:39;;;;;;;1.10;0.30;;;26.50;61.10;;;;;;5046801;28;20115;-68
2022/06/17 09:54:18;;;;;;;0.00;0.00;;;26.50;59.90;;;;;;5048261;28;20130;-69
2022/06/17 09:57:03;;;;;;;0.10;0.05;;;26.70;60.60;;;;;;5038896;28;20048;-69
2022/06/17 09:59:38;;;;;;;0.08;0.00;;;26.90;62.00;;;;;;5048516;28;20029;-69
2022/06/17 10:02:23;;;;;;;0.00;0.00;;;27.20;61.40;;;;;;5043549;28;20061;-71
2022/06/17 10:04:54;;;;;;;0.28;0.13;;;27.50;58.40;;;;;;5038259;28;20097;-70
2022/06/17 10:07:47;;;;;;;0.50;0.20;;;27.50;57.30;;;;;;5040556;28;20025;-71
2022/06/17 10:10:32;;;;;;;0.00;0.00;;;27.90;58.60;;;;;;5048850;28;20107;-71
2022/06/17 10:13:16;;;;;;;0.10;0.10;;;27.80;55.20;;;;;;5045247;28;20029;-71
2022/06/17 10:18:55;;;;;;;0.17;0.10;;;27.10;56.10;;;;;;5042544;28;20072;-71
2022/06/17 10:21:40;;;;;;;0.65;0.65;;;27.20;57.60;;;;;;5042210;28;20044;-71
2022/06/17 10:24:40;;;;;;;0.95;0.40;;;27.30;56.40;;;;;;5045846;28;20045;-71
2022/06/17 10:27:15;;;;;;;0.75;0.32;;;27.70;57.50;;;;;;5040035;28;20033;-71
2022/06/17 10:29:56;;;;;;;0.20;0.00;;;27.70;55.00;;;;;;5041190;28;20028;-71
2022/06/17 10:32:21;;;;;;;;;;;28.20;54.80;;;;;;5045960;28;20052;-71
2022/06/17 10:34:53;;;;;;;0.00;0.00;;;28.00;54.50;;;;;;5038260;28;19913;-71
2022/06/17 10:37:19;;;;;;;0.45;0.17;;;28.40;54.50;;;;;;5043061;28;20044;-72
2022/06/17 10:39:45;;;;;;;0.25;0.13;;;28.00;53.40;;;;;;5041295;28;20025;-73
2022/06/17 10:42:16;;;;;;;0.00;0.00;;;28.30;56.30;;;;;;5040268;28;20021;-72
2022/06/17 10:44:46;;;;;;;0.52;0.20;;;28.20;55.40;;;;;;5052134;28;20029;-72
2022/06/17 10:47:17;;;;;;;0.08;0.08;;;28.30;56.20;;;;;;5036078;28;20033;-71
2022/06/17 10:50:09;;;;;;;0.25;0.17;;;28.50;54.50;;;;;;5039335;28;20036;-71
2022/06/17 10:52:46;;;;;;;0.45;0.20;;;28.20;53.50;;;;;;5040851;28;20029;-71
2022/06/17 10:55:19;;;;;;;0.57;0.20;;;28.20;53.00;;;;;;5039562;28;20107;-72
2022/06/17 10:58:10;;;;;;;0.00;0.00;;;28.10;52.80;;;;;;5044700;28;20106;-72
2022/06/17 11:00:59;;;;;;;0.10;0.10;;;28.40;54.40;;;;;;5045329;28;20032;-72
2022/06/17 11:03:39;;;;;;;0.30;0.20;;;28.00;52.70;;;;;;5038869;28;20034;-73
2022/06/17 11:06:15;;;;;;;0.10;0.10;;;28.60;53.40;;;;;;5041945;28;20025;-72
2022/06/17 11:08:55;;;;;;;0.95;0.30;;;28.30;53.30;;;;;;5045937;28;20127;-72
2022/06/17 11:14:38;;;;;;;0.52;0.30;;;28.20;54.10;;;;;;5036761;28;20401;-72
2022/06/17 11:17:25;;;;;;;0.75;0.52;;;27.90;53.80;;;;;;5040515;28;20037;-72
2022/06/17 11:19:55;;;;;;;0.03;0.03;;;27.80;52.40;;;;;;5034430;28;20033;-72
2022/06/17 11:22:35;;;;;;;0.08;0.08;;;27.80;52.50;;;;;;5039543;28;20043;-74
2022/06/17 11:25:19;;;;;;;0.13;0.13;;;27.60;53.50;;;;;;5052583;28;20476;-72
2022/06/17 11:27:53;;;;;;;0.17;0.10;;;27.60;53.40;;;;;;5038993;28;20103;-72
2022/06/17 11:30:30;;;;;;;0.25;0.20;;;28.00;55.30;;;;;;5043526;28;20013;-73
2022/06/17 11:32:59;;;;;;;0.08;0.00;;;28.10;54.60;;;;;;5032887;28;20062;-73
2022/06/17 11:35:37;;;;;;;0.20;0.10;;;28.60;54.70;;;;;;5039502;28;20112;-73
2022/06/17 11:38:10;;;;;;;1.50;0.73;;;28.70;51.30;;;;;;5042444;28;20055;-72
2022/06/17 11:40:50;;;;;;;0.10;0.10;;;29.40;52.00;;;;;;5046145;28;20044;-74
2022/06/17 11:43:42;;;;;;;1.05;0.47;;;30.00;50.90;;;;;;5045479;28;20067;-72
2022/06/17 11:46:22;;;;;;;0.20;0.10;;;30.50;52.00;;;;;;5046092;28;20037;-73
2022/06/17 11:48:53;;;;;;;0.77;0.52;;;30.90;50.10;;;;;;5041472;28;20025;-72
2022/06/17 11:51:32;;;;;;;0.00;0.00;;;30.40;48.90;;;;;;5042782;28;20024;-72
2022/06/17 11:54:10;;;;;;;0.00;0.00;;;30.50;47.70;;;;;;5038463;28;20490;-72
2022/06/17 11:56:42;;;;;;;0.20;0.10;;;30.90;48.70;;;;;;5038174;28;20033;-71
2022/06/17 11:59:15;;;;;;;0.00;0.00;;;30.20;47.10;;;;;;5032891;28;20096;-72
2022/06/17 12:01:48;;;;;;;0.57;0.43;;;30.40;48.10;;;;;;5041801;28;20029;-71
2022/06/17 12:04:49;;;;;;;0.17;0.10;;;29.80;47.20;;;;;;5046159;28;20076;-72
2022/06/17 12:07:42;;;;;;;1.23;0.40;;;29.80;48.30;;;;;;5042037;28;20056;-72
2022/06/17 12:10:23;;;;;;;1.48;0.70;;;29.80;49.10;;;;;;5038879;28;20028;-72
2022/06/17 12:12:52;;;;;;;0.28;0.10;;;29.70;48.30;;;;;;5039442;28;20036;-72
2022/06/17 12:15:30;;;;;;;0.10;0.10;;;29.40;48.20;;;;;;5031967;28;20044;-73
2022/06/17 12:17:58;;;;;;;0.00;0.00;;;29.80;49.50;;;;;;5037659;28;21444;-73
2022/06/17 12:20:53;;;;;;;0.10;0.10;;;29.60;47.20;;;;;;5046361;28;20027;-72
2022/06/17 12:23:30;;;;;;;0.00;0.00;;;29.40;47.80;;;;;;5032844;28;20057;-72
2022/06/17 12:26:05;;;;;;;0.00;0.00;;;30.30;49.20;;;;;;5036603;28;20026;-71
2022/06/17 12:29:01;;;;;;;0.00;0.00;;;30.70;48.10;;;;;;5052926;28;20080;-71
2022/06/17 12:31:53;;;;;;;0.00;0.00;;;31.50;47.90;;;;;;5037475;28;20025;-71
2022/06/17 12:34:43;;;;;;;0.25;0.20;;;31.70;47.10;;;;;;5049473;28;20029;-72
2022/06/17 12:37:27;;;;;;;0.38;0.28;;;32.00;46.70;;;;;;5040549;28;20025;-71
2022/06/17 12:40:01;;;;;;;0.08;0.00;;;32.20;44.80;;;;;;5050428;28;20025;-71
2022/06/17 12:42:30;;;;;;;0.03;0.03;;;32.10;46.00;;;;;;5040908;28;20047;-74
2022/06/17 12:45:25;;;;;;;0.47;0.30;;;32.10;46.10;;;;;;5036850;28;20544;-72
2022/06/17 12:48:29;;;;;;;0.00;0.00;;;32.00;43.80;;;;;;5042322;28;20496;-72
2022/06/17 12:54:20;;;;;;;0.55;0.52;;;31.90;45.20;;;;;;5047640;28;20099;-72
2022/06/17 12:57:05;;;;;;;0.00;0.00;;;31.90;46.70;;;;;;5046438;28;20394;-72
2022/06/17 13:00:05;;;;;;;0.08;0.00;;;32.00;46.50;;;;;;5039377;28;20030;-73
2022/06/17 13:02:39;;;;;;;0.30;0.10;;;31.40;45.20;;;;;;5039136;28;20137;-74
2022/06/17 13:05:32;;;;;;;0.52;0.20;;;31.00;47.20;;;;;;5026282;28;20304;-74
2022/06/17 13:08:52;;;;;;;1.27;0.57;;;31.30;47.80;;;;;;5036664;28;20417;-74
2022/06/17 13:11:50;;;;;;;0.10;0.03;;;30.80;45.80;;;;;;5042886;28;20511;-73
2022/06/17 13:14:57;;;;;;;1.17;0.40;;;31.50;47.20;;;;;;5046452;28;20107;-74
2022/06/17 13:17:40;;;;;;;0.38;0.20;;;31.70;47.30;;;;;;5038193;28;20033;-72
2022/06/17 13:20:09;;;;;;;0.38;0.20;;;31.70;45.10;;;;;;5037119;28;20049;-73
2022/06/17 13:22:47;;;;;;;0.08;0.08;;;31.20;45.90;;;;;;5050808;28;20116;-72
2022/06/17 13:25:28;;;;;;;0.22;0.22;;;31.20;44.70;;;;;;5047122;28;20516;-72
2022/06/17 13:28:13;;;;;;;0.28;0.10;;;31.20;44.70;;;;;;5046408;28;20083;-73
2022/06/17 13:30:49;;;;;;;0.05;0.05;;;31.50;46.10;;;;;;5043508;28;20028;-72
2022/06/17 13:33:35;;;;;;;0.10;0.10;;;31.30;45.10;;;;;;5041603;28;20861;-73
2022/06/17 13:36:09;;;;;;;0.82;0.40;;;30.60;45.20;;;;;;5040332;28;20045;-72
2022/06/17 13:38:47;;;;;;;0.05;0.05;;;30.80;45.30;;;;;;5042146;28;20360;-72
2022/06/17 13:41:19;;;;;;;0.52;0.40;;;31.10;46.90;;;;;;5047869;28;20551;-72